Masquefa, Spain
Current Conditions -  °F | °C
As of 6:30 AM on Wednesday 26 Nov 2014 (Local Time) from LEBL Reporting Station
Few Clouds Few Clouds  
Wind Chill: 59°   Ceiling: Unl
Heat Index: 59°   Visibility: 4mi
Dew Point: 57°   Wind: 2mph
Humidity: 94%   Direction: NA
Pressure: 29.88"   Gusts: NA
Location:  41.5°N, 1.81°E
Report Text: LEBL 260530Z VRB02KT 7000 FEW016 15/14 Q1012 NOSIG
Loading
Personal Weather Stations






























Interactive Weather Map New forecast layout! Learn more

10-Day Weather Forecast

Advertisements
Track Severe Weather on mobile